sensor_id;sensor_type;location;lat;lon;timestamp;temperature;humidity
3868;DHT22;1949;48.152;11.528;2023-03-14T00:02:17;16.60;41.70
3868;DHT22;1949;48.152;11.528;2023-03-14T00:05:03;16.50;41.80
3868;DHT22;1949;48.152;11.528;2023-03-14T00:07:48;16.50;42.00
3868;DHT22;1949;48.152;11.528;2023-03-14T00:10:31;16.50;42.00
3868;DHT22;1949;48.152;11.528;2023-03-14T00:12:58;16.50;42.00
3868;DHT22;1949;48.152;11.528;2023-03-14T00:15:39;16.50;42.10
3868;DHT22;1949;48.152;11.528;2023-03-14T00:18:04;16.60;42.10
3868;DHT22;1949;48.152;11.528;2023-03-14T00:20:32;16.50;41.90
3868;DHT22;1949;48.152;11.528;2023-03-14T00:23:05;16.50;42.00
3868;DHT22;1949;48.152;11.528;2023-03-14T00:26:11;16.40;42.10
3868;DHT22;1949;48.152;11.528;2023-03-14T00:28:44;16.40;42.10
3868;DHT22;1949;48.152;11.528;2023-03-14T00:31:14;16.40;42.40
3868;DHT22;1949;48.152;11.528;2023-03-14T00:33:47;16.40;42.50
3868;DHT22;1949;48.152;11.528;2023-03-14T00:36:17;16.40;42.50
3868;DHT22;1949;48.152;11.528;2023-03-14T00:38:45;16.40;42.50
3868;DHT22;1949;48.152;11.528;2023-03-14T00:41:31;16.40;42.40
3868;DHT22;1949;48.152;11.528;2023-03-14T00:43:59;16.40;42.50
3868;DHT22;1949;48.152;11.528;2023-03-14T00:46:28;16.30;42.40
3868;DHT22;1949;48.152;11.528;2023-03-14T00:48:56;16.20;42.40
3868;DHT22;1949;48.152;11.528;2023-03-14T00:51:29;16.20;42.60
3868;DHT22;1949;48.152;11.528;2023-03-14T00:53:59;16.10;42.80
3868;DHT22;1949;48.152;11.528;2023-03-14T00:56:25;16.10;43.00
3868;DHT22;1949;48.152;11.528;2023-03-14T00:58:56;16.10;43.10
3868;DHT22;1949;48.152;11.528;2023-03-14T01:01:28;16.20;43.30
3868;DHT22;1949;48.152;11.528;2023-03-14T01:04:03;16.20;43.30
3868;DHT22;1949;48.152;11.528;2023-03-14T01:06:41;16.30;43.20
3868;DHT22;1949;48.152;11.528;2023-03-14T01:09:18;16.40;43.20
3868;DHT22;1949;48.152;11.528;2023-03-14T01:11:47;16.40;43.20
3868;DHT22;1949;48.152;11.528;2023-03-14T01:14:21;16.40;43.10
3868;DHT22;1949;48.152;11.528;2023-03-14T01:16:46;16.30;43.10
3868;DHT22;1949;48.152;11.528;2023-03-14T01:19:12;16.20;43.00
3868;DHT22;1949;48.152;11.528;2023-03-14T01:21:38;16.20;43.30
3868;DHT22;1949;48.152;11.528;2023-03-14T01:24:10;16.10;43.40
3868;DHT22;1949;48.152;11.528;2023-03-14T01:26:37;16.10;43.60
3868;DHT22;1949;48.152;11.528;2023-03-14T01:29:12;16.00;43.70
3868;DHT22;1949;48.152;11.528;2023-03-14T01:31:44;16.00;43.70
3868;DHT22;1949;48.152;11.528;2023-03-14T01:34:10;16.00;43.90
3868;DHT22;1949;48.152;11.528;2023-03-14T01:36:36;15.80;43.70
3868;DHT22;1949;48.152;11.528;2023-03-14T01:39:03;15.80;44.20
3868;DHT22;1949;48.152;11.528;2023-03-14T01:41:29;15.80;44.30
3868;DHT22;1949;48.152;11.528;2023-03-14T01:43:54;15.80;44.40
3868;DHT22;1949;48.152;11.528;2023-03-14T01:46:38;15.80;44.60
3868;DHT22;1949;48.152;11.528;2023-03-14T01:49:29;15.90;44.60
3868;DHT22;1949;48.152;11.528;2023-03-14T01:52:16;15.90;44.60
3868;DHT22;1949;48.152;11.528;2023-03-14T01:54:49;15.80;44.40
3868;DHT22;1949;48.152;11.528;2023-03-14T01:57:37;15.90;44.50
3868;DHT22;1949;48.152;11.528;2023-03-14T02:00:09;15.80;44.60
3868;DHT22;1949;48.152;11.528;2023-03-14T02:02:50;15.70;44.80
3868;DHT22;1949;48.152;11.528;2023-03-14T02:05:22;15.70;44.90
3868;DHT22;1949;48.152;11.528;2023-03-14T02:07:56;15.70;44.90
3868;DHT22;1949;48.152;11.528;2023-03-14T02:10:27;15.60;45.00
3868;DHT22;1949;48.152;11.528;2023-03-14T02:12:56;15.60;45.00
3868;DHT22;1949;48.152;11.528;2023-03-14T02:15:31;15.60;45.10
3868;DHT22;1949;48.152;11.528;2023-03-14T02:17:57;15.60;45.10
3868;DHT22;1949;48.152;11.528;2023-03-14T02:23:02;15.50;45.20
3868;DHT22;1949;48.152;11.528;2023-03-14T02:26:06;15.40;45.00
3868;DHT22;1949;48.152;11.528;2023-03-14T02:28:34;15.40;45.00
3868;DHT22;1949;48.152;11.528;2023-03-14T02:31:00;15.40;45.10
3868;DHT22;1949;48.152;11.528;2023-03-14T02:33:26;15.30;44.90
3868;DHT22;1949;48.152;11.528;2023-03-14T02:35:56;15.20;45.00
3868;DHT22;1949;48.152;11.528;2023-03-14T02:38:37;15.10;45.30
3868;DHT22;1949;48.152;11.528;2023-03-14T02:41:25;15.00;45.20
3868;DHT22;1949;48.152;11.528;2023-03-14T02:43:50;14.90;45.10
3868;DHT22;1949;48.152;11.528;2023-03-14T02:46:18;14.80;45.30
3868;DHT22;1949;48.152;11.528;2023-03-14T02:51:24;14.70;45.70
3868;DHT22;1949;48.152;11.528;2023-03-14T02:53:53;14.70;45.80
3868;DHT22;1949;48.152;11.528;2023-03-14T02:56:32;14.60;45.50
3868;DHT22;1949;48.152;11.528;2023-03-14T02:59:10;14.50;45.50
3868;DHT22;1949;48.152;11.528;2023-03-14T03:01:46;14.40;45.60
3868;DHT22;1949;48.152;11.528;2023-03-14T03:04:12;14.40;45.70
3868;DHT22;1949;48.152;11.528;2023-03-14T03:06:42;14.20;45.50
3868;DHT22;1949;48.152;11.528;2023-03-14T03:09:08;14.20;45.70
3868;DHT22;1949;48.152;11.528;2023-03-14T03:11:34;14.10;45.90
3868;DHT22;1949;48.152;11.528;2023-03-14T03:14:00;14.10;46.20
3868;DHT22;1949;48.152;11.528;2023-03-14T03:16:27;14.10;45.90
3868;DHT22;1949;48.152;11.528;2023-03-14T03:18:52;14.00;45.90
3868;DHT22;1949;48.152;11.528;2023-03-14T03:21:25;14.00;45.70
3868;DHT22;1949;48.152;11.528;2023-03-14T03:24:00;13.90;46.10
3868;DHT22;1949;48.152;11.528;2023-03-14T03:26:30;13.90;46.20
3868;DHT22;1949;48.152;11.528;2023-03-14T03:29:03;13.90;46.10
3868;DHT22;1949;48.152;11.528;2023-03-14T03:31:42;13.90;46.10
3868;DHT22;1949;48.152;11.528;2023-03-14T03:34:14;13.80;46.00
3868;DHT22;1949;48.152;11.528;2023-03-14T03:36:48;13.80;46.30
3868;DHT22;1949;48.152;11.528;2023-03-14T03:39:20;13.80;46.20
3868;DHT22;1949;48.152;11.528;2023-03-14T03:41:55;13.70;46.10
3868;DHT22;1949;48.152;11.528;2023-03-14T03:44:22;13.80;46.30
3868;DHT22;1949;48.152;11.528;2023-03-14T03:46:56;13.70;46.10
3868;DHT22;1949;48.152;11.528;2023-03-14T03:49:22;13.70;46.20
3868;DHT22;1949;48.152;11.528;2023-03-14T03:51:51;13.60;46.50
3868;DHT22;1949;48.152;11.528;2023-03-14T03:54:20;13.60;46.10
3868;DHT22;1949;48.152;11.528;2023-03-14T03:56:50;13.50;46.00
3868;DHT22;1949;48.152;11.528;2023-03-14T03:59:23;13.50;46.20
3868;DHT22;1949;48.152;11.528;2023-03-14T04:01:49;13.40;46.40
3868;DHT22;1949;48.152;11.528;2023-03-14T04:04:14;13.40;46.20
3868;DHT22;1949;48.152;11.528;2023-03-14T04:06:44;13.40;46.00
3868;DHT22;1949;48.152;11.528;2023-03-14T04:09:13;13.40;46.10
3868;DHT22;1949;48.152;11.528;2023-03-14T04:11:48;13.30;46.20
3868;DHT22;1949;48.152;11.528;2023-03-14T04:14:14;13.30;46.20
3868;DHT22;1949;48.152;11.528;2023-03-14T04:16:57;13.30;46.20
3868;DHT22;1949;48.152;11.528;2023-03-14T04:19:24;13.20;46.10
3868;DHT22;1949;48.152;11.528;2023-03-14T04:21:52;13.30;46.30
3868;DHT22;1949;48.152;11.528;2023-03-14T04:27:08;13.30;46.40
3868;DHT22;1949;48.152;11.528;2023-03-14T04:29:38;13.30;46.30
3868;DHT22;1949;48.152;11.528;2023-03-14T04:32:14;13.30;46.30
3868;DHT22;1949;48.152;11.528;2023-03-14T04:34:43;13.40;46.40
3868;DHT22;1949;48.152;11.528;2023-03-14T04:37:13;13.20;46.30
3868;DHT22;1949;48.152;11.528;2023-03-14T04:39:39;13.20;46.40
3868;DHT22;1949;48.152;11.528;2023-03-14T04:42:05;13.20;46.40
3868;DHT22;1949;48.152;11.528;2023-03-14T04:44:34;13.20;46.50
3868;DHT22;1949;48.152;11.528;2023-03-14T04:47:14;13.20;46.50
3868;DHT22;1949;48.152;11.528;2023-03-14T04:49:48;13.20;46.50
3868;DHT22;1949;48.152;11.528;2023-03-14T04:52:19;13.20;46.30
3868;DHT22;1949;48.152;11.528;2023-03-14T04:54:53;13.20;46.50
3868;DHT22;1949;48.152;11.528;2023-03-14T04:57:31;13.10;46.40
3868;DHT22;1949;48.152;11.528;2023-03-14T05:00:04;13.10;46.40
3868;DHT22;1949;48.152;11.528;2023-03-14T05:02:43;13.10;46.40
3868;DHT22;1949;48.152;11.528;2023-03-14T05:05:35;13.10;46.50
3868;DHT22;1949;48.152;11.528;2023-03-14T05:11:23;13.20;46.40
3868;DHT22;1949;48.152;11.528;2023-03-14T05:13:49;13.20;46.40
3868;DHT22;1949;48.152;11.528;2023-03-14T05:16:23;13.20;46.40
3868;DHT22;1949;48.152;11.528;2023-03-14T05:18:48;13.20;46.40
3868;DHT22;1949;48.152;11.528;2023-03-14T05:21:21;13.20;46.30
3868;DHT22;1949;48.152;11.528;2023-03-14T05:23:49;13.10;46.40
3868;DHT22;1949;48.152;11.528;2023-03-14T05:29:50;13.20;46.60
3868;DHT22;1949;48.152;11.528;2023-03-14T05:32:18;13.20;46.50
3868;DHT22;1949;48.152;11.528;2023-03-14T05:34:55;13.20;46.50
3868;DHT22;1949;48.152;11.528;2023-03-14T05:37:51;13.20;46.50
3868;DHT22;1949;48.152;11.528;2023-03-14T05:40:17;13.20;46.50
3868;DHT22;1949;48.152;11.528;2023-03-14T05:43:05;13.20;46.60
3868;DHT22;1949;48.152;11.528;2023-03-14T05:45:34;13.20;46.40
3868;DHT22;1949;48.152;11.528;2023-03-14T05:48:04;13.20;46.50
3868;DHT22;1949;48.152;11.528;2023-03-14T05:50:30;13.30;46.90
3868;DHT22;1949;48.152;11.528;2023-03-14T05:52:56;13.40;46.70
3868;DHT22;1949;48.152;11.528;2023-03-14T05:55:30;13.50;46.70
3868;DHT22;1949;48.152;11.528;2023-03-14T05:57:55;13.40;46.60
3868;DHT22;1949;48.152;11.528;2023-03-14T06:00:27;13.50;46.70
3868;DHT22;1949;48.152;11.528;2023-03-14T06:03:04;13.70;46.90
3868;DHT22;1949;48.152;11.528;2023-03-14T06:05:36;13.50;46.40
3868;DHT22;1949;48.152;11.528;2023-03-14T06:08:08;13.50;46.40
3868;DHT22;1949;48.152;11.528;2023-03-14T06:10:56;13.50;46.50
3868;DHT22;1949;48.152;11.528;2023-03-14T06:13:35;13.50;46.40
3868;DHT22;1949;48.152;11.528;2023-03-14T06:16:01;13.50;46.30
3868;DHT22;1949;48.152;11.528;2023-03-14T06:18:26;13.40;46.30
3868;DHT22;1949;48.152;11.528;2023-03-14T06:20:58;13.40;46.60
3868;DHT22;1949;48.152;11.528;2023-03-14T06:23:33;13.40;46.50
3868;DHT22;1949;48.152;11.528;2023-03-14T06:26:15;13.30;46.40
3868;DHT22;1949;48.152;11.528;2023-03-14T06:29:06;13.30;46.40
3868;DHT22;1949;48.152;11.528;2023-03-14T06:34:24;13.30;46.40
3868;DHT22;1949;48.152;11.528;2023-03-14T06:36:53;13.20;46.30
3868;DHT22;1949;48.152;11.528;2023-03-14T06:39:19;13.20;46.50
3868;DHT22;1949;48.152;11.528;2023-03-14T06:41:51;13.30;46.60
3868;DHT22;1949;48.152;11.528;2023-03-14T06:44:28;13.30;46.70
3868;DHT22;1949;48.152;11.528;2023-03-14T06:47:02;13.30;46.80
3868;DHT22;1949;48.152;11.528;2023-03-14T06:49:30;13.30;46.60
3868;DHT22;1949;48.152;11.528;2023-03-14T06:52:01;13.30;46.50
3868;DHT22;1949;48.152;11.528;2023-03-14T06:54:35;13.40;46.50
3868;DHT22;1949;48.152;11.528;2023-03-14T06:57:01;13.30;46.40
3868;DHT22;1949;48.152;11.528;2023-03-14T06:59:35;13.40;46.50
3868;DHT22;1949;48.152;11.528;2023-03-14T07:05:25;13.40;46.70
3868;DHT22;1949;48.152;11.528;2023-03-14T07:07:57;13.40;46.50
3868;DHT22;1949;48.152;11.528;2023-03-14T07:10:25;13.40;46.60
3868;DHT22;1949;48.152;11.528;2023-03-14T07:12:56;13.40;46.60
3868;DHT22;1949;48.152;11.528;2023-03-14T07:15:35;13.50;46.50
3868;DHT22;1949;48.152;11.528;2023-03-14T07:18:02;13.40;46.40
3868;DHT22;1949;48.152;11.528;2023-03-14T07:21:00;13.40;46.50
3868;DHT22;1949;48.152;11.528;2023-03-14T07:23:32;13.50;46.60
3868;DHT22;1949;48.152;11.528;2023-03-14T07:26:06;13.50;46.60
3868;DHT22;1949;48.152;11.528;2023-03-14T07:31:58;13.50;46.50
3868;DHT22;1949;48.152;11.528;2023-03-14T07:34:45;13.50;46.50
3868;DHT22;1949;48.152;11.528;2023-03-14T07:37:18;13.60;46.50
3868;DHT22;1949;48.152;11.528;2023-03-14T07:43:13;13.60;46.50
3868;DHT22;1949;48.152;11.528;2023-03-14T07:45:47;13.70;46.50
3868;DHT22;1949;48.152;11.528;2023-03-14T07:48:13;13.70;46.40
3868;DHT22;1949;48.152;11.528;2023-03-14T07:50:48;13.70;47.00
3868;DHT22;1949;48.152;11.528;2023-03-14T07:53:16;13.70;46.30
3868;DHT22;1949;48.152;11.528;2023-03-14T07:56:15;13.70;46.20
3868;DHT22;1949;48.152;11.528;2023-03-14T07:58:44;13.80;46.20
3868;DHT22;1949;48.152;11.528;2023-03-14T08:01:40;13.70;46.10
3868;DHT22;1949;48.152;11.528;2023-03-14T08:04:21;13.70;46.30
3868;DHT22;1949;48.152;11.528;2023-03-14T08:06:49;13.80;46.40
3868;DHT22;1949;48.152;11.528;2023-03-14T08:09:43;13.80;46.30
3868;DHT22;1949;48.152;11.528;2023-03-14T08:15:29;13.90;46.30
3868;DHT22;1949;48.152;11.528;2023-03-14T08:18:13;14.00;46.40
3868;DHT22;1949;48.152;11.528;2023-03-14T08:20:51;14.10;46.40
3868;DHT22;1949;48.152;11.528;2023-03-14T08:23:37;14.10;46.20
3868;DHT22;1949;48.152;11.528;2023-03-14T08:26:11;14.30;46.30
3868;DHT22;1949;48.152;11.528;2023-03-14T08:28:36;14.20;45.80
3868;DHT22;1949;48.152;11.528;2023-03-14T08:31:34;14.30;45.80
3868;DHT22;1949;48.152;11.528;2023-03-14T08:34:02;14.30;45.80
3868;DHT22;1949;48.152;11.528;2023-03-14T08:36:29;14.30;45.90
3868;DHT22;1949;48.152;11.528;2023-03-14T08:39:12;14.30;45.90
3868;DHT22;1949;48.152;11.528;2023-03-14T08:41:39;14.30;45.80
3868;DHT22;1949;48.152;11.528;2023-03-14T08:44:10;14.30;45.60
3868;DHT22;1949;48.152;11.528;2023-03-14T08:46:57;14.30;45.50
3868;DHT22;1949;48.152;11.528;2023-03-14T08:49:35;14.30;45.70
3868;DHT22;1949;48.152;11.528;2023-03-14T08:52:03;14.20;45.50
3868;DHT22;1949;48.152;11.528;2023-03-14T08:54:30;14.30;45.60
3868;DHT22;1949;48.152;11.528;2023-03-14T08:57:00;14.30;45.80
3868;DHT22;1949;48.152;11.528;2023-03-14T08:59:28;14.40;45.80
3868;DHT22;1949;48.152;11.528;2023-03-14T09:02:03;14.30;45.40
3868;DHT22;1949;48.152;11.528;2023-03-14T09:04:45;14.30;45.30
3868;DHT22;1949;48.152;11.528;2023-03-14T09:07:19;14.30;45.40
3868;DHT22;1949;48.152;11.528;2023-03-14T09:09:57;14.30;45.50
3868;DHT22;1949;48.152;11.528;2023-03-14T09:12:29;14.30;45.60
3868;DHT22;1949;48.152;11.528;2023-03-14T09:14:56;14.40;45.60
3868;DHT22;1949;48.152;11.528;2023-03-14T09:17:37;14.40;45.60
3868;DHT22;1949;48.152;11.528;2023-03-14T09:20:03;14.50;45.40
3868;DHT22;1949;48.152;11.528;2023-03-14T09:22:33;14.50;45.40
3868;DHT22;1949;48.152;11.528;2023-03-14T09:25:10;14.50;45.20
3868;DHT22;1949;48.152;11.528;2023-03-14T09:27:50;14.50;45.20
3868;DHT22;1949;48.152;11.528;2023-03-14T09:30:21;14.40;45.20
3868;DHT22;1949;48.152;11.528;2023-03-14T09:32:54;14.50;45.30
3868;DHT22;1949;48.152;11.528;2023-03-14T09:35:19;14.40;45.00
3868;DHT22;1949;48.152;11.528;2023-03-14T09:37:48;14.40;45.20
3868;DHT22;1949;48.152;11.528;2023-03-14T09:40:19;14.40;45.10
3868;DHT22;1949;48.152;11.528;2023-03-14T09:42:50;14.40;45.00
3868;DHT22;1949;48.152;11.528;2023-03-14T09:45:34;14.40;45.20
3868;DHT22;1949;48.152;11.528;2023-03-14T09:48:03;14.40;45.00
3868;DHT22;1949;48.152;11.528;2023-03-14T09:50:54;14.40;45.00
3868;DHT22;1949;48.152;11.528;2023-03-14T09:53:25;14.40;45.10
3868;DHT22;1949;48.152;11.528;2023-03-14T09:56:11;14.40;45.10
3868;DHT22;1949;48.152;11.528;2023-03-14T09:58:56;14.50;45.20
3868;DHT22;1949;48.152;11.528;2023-03-14T10:01:30;14.50;45.10
3868;DHT22;1949;48.152;11.528;2023-03-14T10:04:10;14.60;45.00
3868;DHT22;1949;48.152;11.528;2023-03-14T10:06:36;14.60;45.00
3868;DHT22;1949;48.152;11.528;2023-03-14T10:09:03;14.60;45.00
3868;DHT22;1949;48.152;11.528;2023-03-14T10:11:35;14.70;45.00
3868;DHT22;1949;48.152;11.528;2023-03-14T10:14:11;14.70;44.90
3868;DHT22;1949;48.152;11.528;2023-03-14T10:16:51;14.70;44.90
3868;DHT22;1949;48.152;11.528;2023-03-14T10:19:17;14.70;44.90
3868;DHT22;1949;48.152;11.528;2023-03-14T10:21:53;14.70;44.90
3868;DHT22;1949;48.152;11.528;2023-03-14T10:26:59;14.90;44.90
3868;DHT22;1949;48.152;11.528;2023-03-14T10:29:30;14.90;44.60
3868;DHT22;1949;48.152;11.528;2023-03-14T10:32:03;14.90;44.50
3868;DHT22;1949;48.152;11.528;2023-03-14T10:34:38;15.00;44.70
3868;DHT22;1949;48.152;11.528;2023-03-14T10:40:49;15.00;44.60
3868;DHT22;1949;48.152;11.528;2023-03-14T10:46:32;15.10;44.40
3868;DHT22;1949;48.152;11.528;2023-03-14T10:49:29;15.10;44.40
3868;DHT22;1949;48.152;11.528;2023-03-14T10:52:15;15.20;44.20
3868;DHT22;1949;48.152;11.528;2023-03-14T10:55:08;15.20;44.00
3868;DHT22;1949;48.152;11.528;2023-03-14T10:57:48;15.20;44.10
3868;DHT22;1949;48.152;11.528;2023-03-14T11:00:21;15.20;44.30
3868;DHT22;1949;48.152;11.528;2023-03-14T11:05:59;15.20;43.90
3868;DHT22;1949;48.152;11.528;2023-03-14T11:11:35;15.20;43.90
3868;DHT22;1949;48.152;11.528;2023-03-14T11:14:20;15.20;43.90
3868;DHT22;1949;48.152;11.528;2023-03-14T11:20:35;15.30;44.00
3868;DHT22;1949;48.152;11.528;2023-03-14T11:23:20;15.40;43.80
3868;DHT22;1949;48.152;11.528;2023-03-14T11:26:32;15.40;43.60
3868;DHT22;1949;48.152;11.528;2023-03-14T11:31:54;15.50;43.50
3868;DHT22;1949;48.152;11.528;2023-03-14T11:37:28;15.60;43.60
3868;DHT22;1949;48.152;11.528;2023-03-14T11:40:25;15.80;43.40
3868;DHT22;1949;48.152;11.528;2023-03-14T11:43:26;15.80;43.30
3868;DHT22;1949;48.152;11.528;2023-03-14T11:45:59;15.80;43.40
3868;DHT22;1949;48.152;11.528;2023-03-14T11:51:38;15.80;43.10
3868;DHT22;1949;48.152;11.528;2023-03-14T11:54:22;15.80;43.00
3868;DHT22;1949;48.152;11.528;2023-03-14T11:57:09;15.70;42.90
3868;DHT22;1949;48.152;11.528;2023-03-14T12:03:21;15.70;42.90
3868;DHT22;1949;48.152;11.528;2023-03-14T12:13:52;15.80;42.80
3868;DHT22;1949;48.152;11.528;2023-03-14T12:16:34;15.80;42.60
3868;DHT22;1949;48.152;11.528;2023-03-14T12:19:31;15.70;42.50
3868;DHT22;1949;48.152;11.528;2023-03-14T12:22:05;15.70;42.50
3868;DHT22;1949;48.152;11.528;2023-03-14T12:24:35;15.70;42.40
3868;DHT22;1949;48.152;11.528;2023-03-14T12:27:06;15.60;42.30
3868;DHT22;1949;48.152;11.528;2023-03-14T12:29:57;15.60;42.40
3868;DHT22;1949;48.152;11.528;2023-03-14T12:32:25;15.60;42.70
3868;DHT22;1949;48.152;11.528;2023-03-14T12:34:53;15.70;42.60
3868;DHT22;1949;48.152;11.528;2023-03-14T12:37:57;15.70;42.60
3868;DHT22;1949;48.152;11.528;2023-03-14T12:40:31;15.70;42.60
3868;DHT22;1949;48.152;11.528;2023-03-14T12:43:02;15.90;42.70
3868;DHT22;1949;48.152;11.528;2023-03-14T12:45:36;15.90;42.50
3868;DHT22;1949;48.152;11.528;2023-03-14T12:48:14;16.00;42.50
3868;DHT22;1949;48.152;11.528;2023-03-14T12:50:45;16.00;42.30
3868;DHT22;1949;48.152;11.528;2023-03-14T12:59:37;16.00;42.10
3868;DHT22;1949;48.152;11.528;2023-03-14T13:04:36;15.80;42.10
3868;DHT22;1949;48.152;11.528;2023-03-14T13:07:35;15.80;42.20
3868;DHT22;1949;48.152;11.528;2023-03-14T13:10:18;15.70;42.10
3868;DHT22;1949;48.152;11.528;2023-03-14T13:16:01;15.50;42.00
3868;DHT22;1949;48.152;11.528;2023-03-14T13:18:38;15.50;42.40
3868;DHT22;1949;48.152;11.528;2023-03-14T13:21:24;15.40;42.10
3868;DHT22;1949;48.152;11.528;2023-03-14T13:24:20;15.40;42.50
3868;DHT22;1949;48.152;11.528;2023-03-14T13:26:46;15.40;42.50
3868;DHT22;1949;48.152;11.528;2023-03-14T13:32:01;15.30;42.40
3868;DHT22;1949;48.152;11.528;2023-03-14T13:34:33;15.30;42.50
3868;DHT22;1949;48.152;11.528;2023-03-14T13:37:01;15.20;42.40
3868;DHT22;1949;48.152;11.528;2023-03-14T13:39:33;15.20;42.50
3868;DHT22;1949;48.152;11.528;2023-03-14T13:42:15;15.10;42.30
3868;DHT22;1949;48.152;11.528;2023-03-14T13:44:46;15.00;42.50
3868;DHT22;1949;48.152;11.528;2023-03-14T13:47:18;14.90;42.40
3868;DHT22;1949;48.152;11.528;2023-03-14T13:49:48;14.70;42.50
3868;DHT22;1949;48.152;11.528;2023-03-14T13:52:28;14.70;42.90
3868;DHT22;1949;48.152;11.528;2023-03-14T13:54:58;14.70;43.00
3868;DHT22;1949;48.152;11.528;2023-03-14T13:57:45;14.70;43.00
3868;DHT22;1949;48.152;11.528;2023-03-14T14:00:19;14.70;43.00
3868;DHT22;1949;48.152;11.528;2023-03-14T14:02:46;14.60;42.80
3868;DHT22;1949;48.152;11.528;2023-03-14T14:05:21;14.60;42.90
3868;DHT22;1949;48.152;11.528;2023-03-14T14:07:49;14.50;43.00
3868;DHT22;1949;48.152;11.528;2023-03-14T14:10:16;14.40;43.10
3868;DHT22;1949;48.152;11.528;2023-03-14T14:12:55;14.30;43.20
3868;DHT22;1949;48.152;11.528;2023-03-14T14:15:27;14.20;43.60
3868;DHT22;1949;48.152;11.528;2023-03-14T14:18:06;14.20;44.40
3868;DHT22;1949;48.152;11.528;2023-03-14T14:20:40;14.10;43.70
3868;DHT22;1949;48.152;11.528;2023-03-14T14:23:11;14.00;44.00
3868;DHT22;1949;48.152;11.528;2023-03-14T14:25:40;14.00;44.10
3868;DHT22;1949;48.152;11.528;2023-03-14T14:31:21;13.70;44.10
3868;DHT22;1949;48.152;11.528;2023-03-14T14:34:03;13.60;44.10
3868;DHT22;1949;48.152;11.528;2023-03-14T14:36:44;13.40;44.30
3868;DHT22;1949;48.152;11.528;2023-03-14T14:39:26;13.30;44.40
3868;DHT22;1949;48.152;11.528;2023-03-14T14:41:55;13.10;44.30
3868;DHT22;1949;48.152;11.528;2023-03-14T14:44:33;13.10;44.80
3868;DHT22;1949;48.152;11.528;2023-03-14T14:47:03;13.00;44.50
3868;DHT22;1949;48.152;11.528;2023-03-14T14:49:31;12.90;44.40
3868;DHT22;1949;48.152;11.528;2023-03-14T14:52:09;12.70;44.60
3868;DHT22;1949;48.152;11.528;2023-03-14T14:54:46;12.70;44.90
3868;DHT22;1949;48.152;11.528;2023-03-14T14:57:23;12.70;45.10
3868;DHT22;1949;48.152;11.528;2023-03-14T14:59:50;12.60;44.90
3868;DHT22;1949;48.152;11.528;2023-03-14T15:02:40;12.60;45.30
3868;DHT22;1949;48.152;11.528;2023-03-14T15:05:17;12.50;44.60
3868;DHT22;1949;48.152;11.528;2023-03-14T15:07:45;12.40;44.80
3868;DHT22;1949;48.152;11.528;2023-03-14T15:10:19;12.40;44.90
3868;DHT22;1949;48.152;11.528;2023-03-14T15:12:45;12.40;45.00
3868;DHT22;1949;48.152;11.528;2023-03-14T15:15:13;12.40;45.00
3868;DHT22;1949;48.152;11.528;2023-03-14T15:17:38;12.30;44.90
3868;DHT22;1949;48.152;11.528;2023-03-14T15:20:06;12.30;45.10
3868;DHT22;1949;48.152;11.528;2023-03-14T15:22:32;12.40;45.50
3868;DHT22;1949;48.152;11.528;2023-03-14T15:25:00;12.40;45.40
3868;DHT22;1949;48.152;11.528;2023-03-14T15:27:28;12.40;45.40
3868;DHT22;1949;48.152;11.528;2023-03-14T15:30:00;12.30;45.30
3868;DHT22;1949;48.152;11.528;2023-03-14T15:32:30;12.40;45.80
3868;DHT22;1949;48.152;11.528;2023-03-14T15:35:03;12.40;45.80
3868;DHT22;1949;48.152;11.528;2023-03-14T15:37:29;12.40;45.60
3868;DHT22;1949;48.152;11.528;2023-03-14T15:39:56;12.30;45.30
3868;DHT22;1949;48.152;11.528;2023-03-14T15:42:23;12.30;45.40
3868;DHT22;1949;48.152;11.528;2023-03-14T15:44:53;12.20;45.40
3868;DHT22;1949;48.152;11.528;2023-03-14T15:47:19;12.20;45.70
3868;DHT22;1949;48.152;11.528;2023-03-14T15:49:45;12.20;45.70
3868;DHT22;1949;48.152;11.528;2023-03-14T15:52:10;12.20;45.50
3868;DHT22;1949;48.152;11.528;2023-03-14T15:54:37;12.10;45.40
3868;DHT22;1949;48.152;11.528;2023-03-14T15:57:04;12.10;46.10
3868;DHT22;1949;48.152;11.528;2023-03-14T15:59:32;12.10;46.00
3868;DHT22;1949;48.152;11.528;2023-03-14T16:01:58;12.10;45.60
3868;DHT22;1949;48.152;11.528;2023-03-14T16:04:24;12.10;45.60
3868;DHT22;1949;48.152;11.528;2023-03-14T16:06:50;12.20;45.60
3868;DHT22;1949;48.152;11.528;2023-03-14T16:09:21;12.20;45.50
3868;DHT22;1949;48.152;11.528;2023-03-14T16:11:51;12.30;45.60
3868;DHT22;1949;48.152;11.528;2023-03-14T16:14:18;12.30;45.40
3868;DHT22;1949;48.152;11.528;2023-03-14T16:16:48;12.30;45.20
3868;DHT22;1949;48.152;11.528;2023-03-14T16:19:15;12.30;45.20
3868;DHT22;1949;48.152;11.528;2023-03-14T16:21:42;12.30;45.20
3868;DHT22;1949;48.152;11.528;2023-03-14T16:24:09;12.30;45.10
3868;DHT22;1949;48.152;11.528;2023-03-14T16:26:41;12.30;45.00
3868;DHT22;1949;48.152;11.528;2023-03-14T16:29:10;12.40;45.00
3868;DHT22;1949;48.152;11.528;2023-03-14T16:31:40;12.30;45.00
3868;DHT22;1949;48.152;11.528;2023-03-14T16:34:13;12.30;44.90
3868;DHT22;1949;48.152;11.528;2023-03-14T16:36:39;12.30;44.50
3868;DHT22;1949;48.152;11.528;2023-03-14T16:39:04;12.30;44.50
3868;DHT22;1949;48.152;11.528;2023-03-14T16:41:34;12.20;44.00
3868;DHT22;1949;48.152;11.528;2023-03-14T16:44:00;12.20;44.00
3868;DHT22;1949;48.152;11.528;2023-03-14T16:46:27;12.30;44.00
3868;DHT22;1949;48.152;11.528;2023-03-14T16:48:55;12.20;43.60
3868;DHT22;1949;48.152;11.528;2023-03-14T16:51:28;12.20;43.50
3868;DHT22;1949;48.152;11.528;2023-03-14T16:53:54;12.10;43.50
3868;DHT22;1949;48.152;11.528;2023-03-14T16:56:21;12.10;43.50
3868;DHT22;1949;48.152;11.528;2023-03-14T16:58:49;12.10;43.60
3868;DHT22;1949;48.152;11.528;2023-03-14T17:01:17;12.00;43.30
3868;DHT22;1949;48.152;11.528;2023-03-14T17:03:48;12.10;43.40
3868;DHT22;1949;48.152;11.528;2023-03-14T17:06:24;12.00;43.30
3868;DHT22;1949;48.152;11.528;2023-03-14T17:08:51;12.00;43.40
3868;DHT22;1949;48.152;11.528;2023-03-14T17:11:24;12.00;43.60
3868;DHT22;1949;48.152;11.528;2023-03-14T17:13:50;12.00;43.30
3868;DHT22;1949;48.152;11.528;2023-03-14T17:16:18;12.10;43.40
3868;DHT22;1949;48.152;11.528;2023-03-14T17:18:49;12.00;43.10
3868;DHT22;1949;48.152;11.528;2023-03-14T17:21:15;12.00;43.00
3868;DHT22;1949;48.152;11.528;2023-03-14T17:23:42;12.00;43.10
3868;DHT22;1949;48.152;11.528;2023-03-14T17:26:09;12.00;43.10
3868;DHT22;1949;48.152;11.528;2023-03-14T17:28:36;12.00;43.00
3868;DHT22;1949;48.152;11.528;2023-03-14T17:31:08;12.00;42.80
3868;DHT22;1949;48.152;11.528;2023-03-14T17:33:39;11.90;42.80
3868;DHT22;1949;48.152;11.528;2023-03-14T17:36:05;11.90;42.60
3868;DHT22;1949;48.152;11.528;2023-03-14T17:38:36;11.90;42.70
3868;DHT22;1949;48.152;11.528;2023-03-14T17:41:03;11.90;42.50
3868;DHT22;1949;48.152;11.528;2023-03-14T17:43:31;11.90;42.60
3868;DHT22;1949;48.152;11.528;2023-03-14T17:46:07;11.90;42.50
3868;DHT22;1949;48.152;11.528;2023-03-14T17:48:37;11.90;42.50
3868;DHT22;1949;48.152;11.528;2023-03-14T17:51:03;11.90;42.40
3868;DHT22;1949;48.152;11.528;2023-03-14T17:53:29;11.90;42.40